sensor_id;sensor_type;location;lat;lon;timestamp;pressure;altitude;pressure_sealevel;temperature;humidity
31005;BME280;17676;52.254;4.490;2023-04-04T00:01:24;102904.41;;;5.47;100.00
31005;BME280;17676;52.254;4.490;2023-04-04T00:03:50;102905.63;;;5.43;100.00
31005;BME280;17676;52.254;4.490;2023-04-04T00:06:17;102900.63;;;5.38;100.00
31005;BME280;17676;52.254;4.490;2023-04-04T00:08:43;102901.47;;;5.38;100.00
31005;BME280;17676;52.254;4.490;2023-04-04T00:11:08;102909.41;;;5.40;100.00
31005;BME280;17676;52.254;4.490;2023-04-04T00:13:34;102895.25;;;5.38;100.00
31005;BME280;17676;52.254;4.490;2023-04-04T00:16:00;102906.50;;;5.32;100.00
31005;BME280;17676;52.254;4.490;2023-04-04T00:18:26;102900.25;;;5.31;100.00
31005;BME280;17676;52.254;4.490;2023-04-04T00:20:51;102913.09;;;5.39;100.00
31005;BME280;17676;52.254;4.490;2023-04-04T00:23:17;102913.81;;;5.30;100.00
31005;BME280;17676;52.254;4.490;2023-04-04T00:25:48;102913.56;;;5.33;100.00
31005;BME280;17676;52.254;4.490;2023-04-04T00:28:14;102889.53;;;5.31;100.00
31005;BME280;17676;52.254;4.490;2023-04-04T00:30:40;102899.53;;;5.18;100.00
31005;BME280;17676;52.254;4.490;2023-04-04T00:33:06;102914.91;;;5.27;100.00
31005;BME280;17676;52.254;4.490;2023-04-04T00:35:32;102909.53;;;5.16;100.00
31005;BME280;17676;52.254;4.490;2023-04-04T00:37:57;102896.38;;;4.91;100.00
31005;BME280;17676;52.254;4.490;2023-04-04T00:40:23;102900.75;;;5.03;100.00
31005;BME280;17676;52.254;4.490;2023-04-04T00:42:48;102912.13;;;5.07;100.00
31005;BME280;17676;52.254;4.490;2023-04-04T00:45:14;102878.56;;;4.90;100.00
31005;BME280;17676;52.254;4.490;2023-04-04T00:47:42;102884.94;;;5.00;100.00
31005;BME280;17676;52.254;4.490;2023-04-04T00:50:08;102874.44;;;4.97;100.00
31005;BME280;17676;52.254;4.490;2023-04-04T00:52:33;102879.69;;;4.88;100.00
31005;BME280;17676;52.254;4.490;2023-04-04T00:54:59;102891.25;;;4.99;100.00
31005;BME280;17676;52.254;4.490;2023-04-04T00:57:27;102871.28;;;4.92;100.00
31005;BME280;17676;52.254;4.490;2023-04-04T00:59:53;102881.25;;;4.90;100.00
31005;BME280;17676;52.254;4.490;2023-04-04T01:02:20;102870.50;;;4.79;100.00
31005;BME280;17676;52.254;4.490;2023-04-04T01:04:45;102887.47;;;4.80;100.00
31005;BME280;17676;52.254;4.490;2023-04-04T01:07:12;102880.88;;;4.73;100.00
31005;BME280;17676;52.254;4.490;2023-04-04T01:09:38;102869.53;;;4.69;100.00
31005;BME280;17676;52.254;4.490;2023-04-04T01:12:05;102874.69;;;4.72;100.00
31005;BME280;17676;52.254;4.490;2023-04-04T01:14:31;102860.75;;;4.56;100.00
31005;BME280;17676;52.254;4.490;2023-04-04T01:16:58;102865.38;;;4.54;100.00
31005;BME280;17676;52.254;4.490;2023-04-04T01:19:35;102860.13;;;4.42;100.00
31005;BME280;17676;52.254;4.490;2023-04-04T01:22:01;102870.13;;;4.51;100.00
31005;BME280;17676;52.254;4.490;2023-04-04T01:24:32;102865.50;;;4.42;100.00
31005;BME280;17676;52.254;4.490;2023-04-04T01:26:58;102867.34;;;4.52;100.00
31005;BME280;17676;52.254;4.490;2023-04-04T01:29:25;102861.47;;;4.47;100.00
31005;BME280;17676;52.254;4.490;2023-04-04T01:32:12;102886.56;;;4.46;100.00
31005;BME280;17676;52.254;4.490;2023-04-04T01:34:45;102886.94;;;4.42;100.00
31005;BME280;17676;52.254;4.490;2023-04-04T01:37:30;102870.94;;;4.29;100.00
31005;BME280;17676;52.254;4.490;2023-04-04T01:40:13;102892.16;;;4.43;100.00
31005;BME280;17676;52.254;4.490;2023-04-04T01:42:43;102889.47;;;4.43;100.00
31005;BME280;17676;52.254;4.490;2023-04-04T01:45:10;102868.25;;;4.29;100.00
31005;BME280;17676;52.254;4.490;2023-04-04T01:47:38;102878.75;;;4.32;100.00
31005;BME280;17676;52.254;4.490;2023-04-04T01:50:04;102881.53;;;4.31;100.00
31005;BME280;17676;52.254;4.490;2023-04-04T01:52:30;102875.22;;;4.32;100.00
31005;BME280;17676;52.254;4.490;2023-04-04T01:54:55;102886.78;;;4.32;100.00
31005;BME280;17676;52.254;4.490;2023-04-04T01:57:21;102886.00;;;4.19;100.00
31005;BME280;17676;52.254;4.490;2023-04-04T01:59:46;102888.41;;;4.11;100.00
31005;BME280;17676;52.254;4.490;2023-04-04T02:02:12;102886.94;;;4.07;100.00
31005;BME280;17676;52.254;4.490;2023-04-04T02:04:37;102879.44;;;4.12;100.00
31005;BME280;17676;52.254;4.490;2023-04-04T02:07:03;102895.78;;;4.20;100.00
31005;BME280;17676;52.254;4.490;2023-04-04T02:09:29;102873.25;;;3.99;100.00
31005;BME280;17676;52.254;4.490;2023-04-04T02:11:54;102883.25;;;3.97;100.00
31005;BME280;17676;52.254;4.490;2023-04-04T02:14:20;102860.25;;;3.95;100.00
31005;BME280;17676;52.254;4.490;2023-04-04T02:16:45;102886.94;;;4.07;100.00
31005;BME280;17676;52.254;4.490;2023-04-04T02:19:11;102882.66;;;4.05;100.00
31005;BME280;17676;52.254;4.490;2023-04-04T02:21:37;102864.03;;;4.03;100.00
31005;BME280;17676;52.254;4.490;2023-04-04T02:24:03;102864.28;;;4.00;100.00
31005;BME280;17676;52.254;4.490;2023-04-04T02:26:28;102876.47;;;4.04;100.00
31005;BME280;17676;52.254;4.490;2023-04-04T02:28:54;102862.31;;;4.02;100.00
31005;BME280;17676;52.254;4.490;2023-04-04T02:31:19;102883.31;;;4.19;100.00
31005;BME280;17676;52.254;4.490;2023-04-04T02:33:45;102888.41;;;4.11;100.00
31005;BME280;17676;52.254;4.490;2023-04-04T02:36:11;102876.59;;;4.03;100.00
31005;BME280;17676;52.254;4.490;2023-04-04T02:38:37;102872.25;;;3.89;100.00
31005;BME280;17676;52.254;4.490;2023-04-04T02:41:05;102865.44;;;3.85;100.00
31005;BME280;17676;52.254;4.490;2023-04-04T02:43:31;102881.72;;;3.82;100.00
31005;BME280;17676;52.254;4.490;2023-04-04T02:45:57;102890.44;;;3.73;100.00
31005;BME280;17676;52.254;4.490;2023-04-04T02:48:22;102889.19;;;3.66;100.00
31005;BME280;17676;52.254;4.490;2023-04-04T02:50:49;102884.00;;;3.52;100.00
31005;BME280;17676;52.254;4.490;2023-04-04T02:53:15;102872.44;;;3.52;100.00
31005;BME280;17676;52.254;4.490;2023-04-04T02:55:41;102871.94;;;3.47;100.00
31005;BME280;17676;52.254;4.490;2023-04-04T02:58:07;102872.22;;;3.31;100.00
31005;BME280;17676;52.254;4.490;2023-04-04T03:00:32;102885.34;;;3.34;100.00
31005;BME280;17676;52.254;4.490;2023-04-04T03:02:58;102878.59;;;3.29;100.00
31005;BME280;17676;52.254;4.490;2023-04-04T03:05:24;102883.41;;;3.36;100.00
31005;BME280;17676;52.254;4.490;2023-04-04T03:07:55;102871.91;;;3.23;100.00
31005;BME280;17676;52.254;4.490;2023-04-04T03:10:22;102879.19;;;3.21;100.00
31005;BME280;17676;52.254;4.490;2023-04-04T03:12:48;102858.03;;;3.06;100.00
31005;BME280;17676;52.254;4.490;2023-04-04T03:15:14;102860.81;;;3.04;100.00
31005;BME280;17676;52.254;4.490;2023-04-04T03:17:39;102872.59;;;3.02;100.00
31005;BME280;17676;52.254;4.490;2023-04-04T03:20:06;102887.00;;;3.12;100.00
31005;BME280;17676;52.254;4.490;2023-04-04T03:22:31;102882.94;;;3.06;100.00
31005;BME280;17676;52.254;4.490;2023-04-04T03:24:57;102890.56;;;3.00;100.00
31005;BME280;17676;52.254;4.490;2023-04-04T03:27:22;102878.59;;;2.93;100.00
31005;BME280;17676;52.254;4.490;2023-04-04T03:29:48;102889.50;;;2.90;100.00
31005;BME280;17676;52.254;4.490;2023-04-04T03:32:14;102871.78;;;2.76;100.00
31005;BME280;17676;52.254;4.490;2023-04-04T03:34:39;102889.19;;;2.82;100.00
31005;BME280;17676;52.254;4.490;2023-04-04T03:37:04;102890.38;;;2.78;100.00
31005;BME280;17676;52.254;4.490;2023-04-04T03:39:30;102892.94;;;2.79;100.00
31005;BME280;17676;52.254;4.490;2023-04-04T03:41:56;102891.47;;;2.75;100.00
31005;BME280;17676;52.254;4.490;2023-04-04T03:44:22;102889.72;;;2.74;100.00
31005;BME280;17676;52.254;4.490;2023-04-04T03:46:48;102894.44;;;2.71;100.00
31005;BME280;17676;52.254;4.490;2023-04-04T03:49:13;102890.91;;;2.70;100.00
31005;BME280;17676;52.254;4.490;2023-04-04T03:51:38;102890.56;;;2.62;100.00
31005;BME280;17676;52.254;4.490;2023-04-04T03:54:04;102876.69;;;2.57;100.00
31005;BME280;17676;52.254;4.490;2023-04-04T03:56:30;102867.69;;;2.58;100.00
31005;BME280;17676;52.254;4.490;2023-04-04T03:58:57;102869.63;;;2.56;100.00
31005;BME280;17676;52.254;4.490;2023-04-04T04:01:26;102862.16;;;2.49;100.00
31005;BME280;17676;52.254;4.490;2023-04-04T04:03:51;102867.28;;;2.52;100.00
31005;BME280;17676;52.254;4.490;2023-04-04T04:06:16;102858.41;;;2.39;100.00
31005;BME280;17676;52.254;4.490;2023-04-04T04:08:42;102859.81;;;2.44;100.00
31005;BME280;17676;52.254;4.490;2023-04-04T04:11:07;102869.22;;;2.50;100.00
31005;BME280;17676;52.254;4.490;2023-04-04T04:13:35;102849.56;;;2.38;100.00
31005;BME280;17676;52.254;4.490;2023-04-04T04:16:03;102850.28;;;2.40;100.00
31005;BME280;17676;52.254;4.490;2023-04-04T04:18:28;102870.50;;;2.44;100.00
31005;BME280;17676;52.254;4.490;2023-04-04T04:20:58;102854.91;;;2.38;100.00
31005;BME280;17676;52.254;4.490;2023-04-04T04:23:24;102875.84;;;2.44;100.00
31005;BME280;17676;52.254;4.490;2023-04-04T04:25:50;102851.66;;;2.33;100.00
31005;BME280;17676;52.254;4.490;2023-04-04T04:28:16;102865.59;;;2.38;100.00
31005;BME280;17676;52.254;4.490;2023-04-04T04:30:42;102866.44;;;2.26;100.00
31005;BME280;17676;52.254;4.490;2023-04-04T04:33:08;102847.06;;;2.23;100.00
31005;BME280;17676;52.254;4.490;2023-04-04T04:35:37;102879.78;;;2.39;100.00
31005;BME280;17676;52.254;4.490;2023-04-04T04:38:06;102861.09;;;2.26;100.00
31005;BME280;17676;52.254;4.490;2023-04-04T04:40:33;102862.78;;;2.27;100.00
31005;BME280;17676;52.254;4.490;2023-04-04T04:42:59;102872.94;;;2.35;100.00
31005;BME280;17676;52.254;4.490;2023-04-04T04:45:25;102869.53;;;2.33;100.00
31005;BME280;17676;52.254;4.490;2023-04-04T04:47:50;102872.41;;;2.30;100.00
31005;BME280;17676;52.254;4.490;2023-04-04T04:50:16;102870.47;;;2.19;100.00
31005;BME280;17676;52.254;4.490;2023-04-04T04:52:43;102854.84;;;2.13;100.00
31005;BME280;17676;52.254;4.490;2023-04-04T04:55:09;102873.34;;;2.16;100.00
31005;BME280;17676;52.254;4.490;2023-04-04T04:57:35;102867.66;;;2.08;100.00
31005;BME280;17676;52.254;4.490;2023-04-04T05:00:01;102870.88;;;2.13;100.00
31005;BME280;17676;52.254;4.490;2023-04-04T05:02:28;102873.88;;;2.09;100.00
31005;BME280;17676;52.254;4.490;2023-04-04T05:04:55;102899.53;;;2.11;100.00
31005;BME280;17676;52.254;4.490;2023-04-04T05:07:20;102877.06;;;2.01;100.00
31005;BME280;17676;52.254;4.490;2023-04-04T05:09:46;102898.66;;;2.11;100.00
31005;BME280;17676;52.254;4.490;2023-04-04T05:12:12;102892.25;;;2.13;100.00
31005;BME280;17676;52.254;4.490;2023-04-04T05:14:38;102890.53;;;2.12;100.00
31005;BME280;17676;52.254;4.490;2023-04-04T05:17:03;102884.47;;;2.10;100.00
31005;BME280;17676;52.254;4.490;2023-04-04T05:19:28;102890.53;;;2.12;100.00
31005;BME280;17676;52.254;4.490;2023-04-04T05:21:57;102889.91;;;2.09;100.00
31005;BME280;17676;52.254;4.490;2023-04-04T05:24:25;102897.81;;;2.10;100.00
31005;BME280;17676;52.254;4.490;2023-04-04T05:26:52;102898.75;;;2.09;100.00
31005;BME280;17676;52.254;4.490;2023-04-04T05:29:17;102890.25;;;2.29;100.00
31005;BME280;17676;52.254;4.490;2023-04-04T05:31:43;102894.19;;;2.11;100.00
31005;BME280;17676;52.254;4.490;2023-04-04T05:34:08;102888.06;;;2.09;100.00
31005;BME280;17676;52.254;4.490;2023-04-04T05:36:34;102892.25;;;2.13;100.00
31005;BME280;17676;52.254;4.490;2023-04-04T05:39:01;102880.94;;;2.10;100.00
31005;BME280;17676;52.254;4.490;2023-04-04T05:41:27;102879.84;;;2.12;100.00
31005;BME280;17676;52.254;4.490;2023-04-04T05:43:52;102885.00;;;2.15;100.00
31005;BME280;17676;52.254;4.490;2023-04-04T05:46:18;102882.22;;;2.17;100.00
31005;BME280;17676;52.254;4.490;2023-04-04T05:48:43;102883.72;;;2.21;100.00
31005;BME280;17676;52.254;4.490;2023-04-04T05:51:09;102878.50;;;2.19;100.00
31005;BME280;17676;52.254;4.490;2023-04-04T05:53:34;102890.34;;;2.28;100.00
31005;BME280;17676;52.254;4.490;2023-04-04T05:55:59;102895.09;;;2.37;100.00
31005;BME280;17676;52.254;4.490;2023-04-04T05:58:25;102896.69;;;2.39;100.00
31005;BME280;17676;52.254;4.490;2023-04-04T06:00:53;102885.56;;;2.45;100.00
31005;BME280;17676;52.254;4.490;2023-04-04T06:03:19;102887.06;;;2.49;100.00
31005;BME280;17676;52.254;4.490;2023-04-04T06:05:52;102892.81;;;2.56;100.00
31005;BME280;17676;52.254;4.490;2023-04-04T06:08:17;102873.72;;;2.62;100.00
31005;BME280;17676;52.254;4.490;2023-04-04T06:10:43;102866.31;;;2.78;100.00
31005;BME280;17676;52.254;4.490;2023-04-04T06:13:09;102870.69;;;2.91;100.00
31005;BME280;17676;52.254;4.490;2023-04-04T06:15:34;102880.72;;;3.13;100.00
31005;BME280;17676;52.254;4.490;2023-04-04T06:18:00;102885.16;;;3.25;100.00
31005;BME280;17676;52.254;4.490;2023-04-04T06:20:26;102895.63;;;3.40;100.00
31005;BME280;17676;52.254;4.490;2023-04-04T06:22:51;102882.31;;;3.51;100.00
31005;BME280;17676;52.254;4.490;2023-04-04T06:25:18;102878.59;;;3.65;100.00
31005;BME280;17676;52.254;4.490;2023-04-04T06:27:43;102873.19;;;3.77;100.00
31005;BME280;17676;52.254;4.490;2023-04-04T06:30:10;102893.97;;;3.97;100.00
31005;BME280;17676;52.254;4.490;2023-04-04T06:32:46;102881.47;;;4.09;100.00
31005;BME280;17676;52.254;4.490;2023-04-04T06:35:12;102872.53;;;3.97;100.00
31005;BME280;17676;52.254;4.490;2023-04-04T06:37:38;102882.44;;;4.08;100.00
31005;BME280;17676;52.254;4.490;2023-04-04T06:40:04;102887.97;;;4.17;100.00
31005;BME280;17676;52.254;4.490;2023-04-04T06:42:31;102886.00;;;4.19;100.00
31005;BME280;17676;52.254;4.490;2023-04-04T06:44:57;102876.41;;;4.28;100.00
31005;BME280;17676;52.254;4.490;2023-04-04T06:47:23;102880.22;;;4.36;100.00
31005;BME280;17676;52.254;4.490;2023-04-04T06:49:48;102883.13;;;4.33;100.00
31005;BME280;17676;52.254;4.490;2023-04-04T06:52:14;102886.31;;;4.38;100.00
31005;BME280;17676;52.254;4.490;2023-04-04T06:54:40;102885.72;;;4.46;100.00
31005;BME280;17676;52.254;4.490;2023-04-04T06:57:05;102907.31;;;4.66;100.00
31005;BME280;17676;52.254;4.490;2023-04-04T06:59:31;102886.97;;;4.64;100.00
31005;BME280;17676;52.254;4.490;2023-04-04T07:01:57;102882.72;;;4.72;100.00
31005;BME280;17676;52.254;4.490;2023-04-04T07:04:24;102880.53;;;4.88;100.00
31005;BME280;17676;52.254;4.490;2023-04-04T07:06:54;102887.84;;;5.08;100.00
31005;BME280;17676;52.254;4.490;2023-04-04T07:09:22;102872.34;;;5.12;100.00
31005;BME280;17676;52.254;4.490;2023-04-04T07:11:52;102892.97;;;5.22;100.00
31005;BME280;17676;52.254;4.490;2023-04-04T07:14:18;102886.59;;;5.23;100.00
31005;BME280;17676;52.254;4.490;2023-04-04T07:16:44;102916.72;;;5.38;100.00
31005;BME280;17676;52.254;4.490;2023-04-04T07:19:10;102903.91;;;5.42;100.00
31005;BME280;17676;52.254;4.490;2023-04-04T07:21:36;102920.38;;;5.48;100.00
31005;BME280;17676;52.254;4.490;2023-04-04T07:24:04;102916.13;;;5.34;100.00
31005;BME280;17676;52.254;4.490;2023-04-04T07:26:32;102911.00;;;5.20;100.00
31005;BME280;17676;52.254;4.490;2023-04-04T07:28:59;102922.19;;;5.47;100.00
31005;BME280;17676;52.254;4.490;2023-04-04T07:31:25;102930.59;;;5.65;100.00
31005;BME280;17676;52.254;4.490;2023-04-04T07:33:51;102908.22;;;6.18;100.00
31005;BME280;17676;52.254;4.490;2023-04-04T07:36:20;102904.56;;;7.11;100.00
31005;BME280;17676;52.254;4.490;2023-04-04T07:38:48;102903.06;;;7.95;100.00
31005;BME280;17676;52.254;4.490;2023-04-04T07:41:14;102900.25;;;9.81;100.00
31005;BME280;17676;52.254;4.490;2023-04-04T07:43:40;102913.00;;;10.59;100.00
31005;BME280;17676;52.254;4.490;2023-04-04T07:46:05;102921.59;;;11.64;100.00
31005;BME280;17676;52.254;4.490;2023-04-04T07:48:31;102903.75;;;12.75;100.00
31005;BME280;17676;52.254;4.490;2023-04-04T07:50:57;102910.09;;;13.22;100.00
31005;BME280;17676;52.254;4.490;2023-04-04T07:53:24;102911.88;;;13.84;100.00
31005;BME280;17676;52.254;4.490;2023-04-04T07:55:51;102916.06;;;15.00;100.00
31005;BME280;17676;52.254;4.490;2023-04-04T07:58:17;102921.06;;;15.25;100.00
31005;BME280;17676;52.254;4.490;2023-04-04T08:00:42;102912.50;;;15.72;100.00
31005;BME280;17676;52.254;4.490;2023-04-04T08:03:13;102907.19;;;15.85;100.00
31005;BME280;17676;52.254;4.490;2023-04-04T08:05:42;102901.00;;;14.89;100.00
31005;BME280;17676;52.254;4.490;2023-04-04T08:08:07;102892.91;;;14.96;100.00
31005;BME280;17676;52.254;4.490;2023-04-04T08:10:33;102915.41;;;16.06;100.00
31005;BME280;17676;52.254;4.490;2023-04-04T08:12:59;102894.47;;;16.76;100.00
31005;BME280;17676;52.254;4.490;2023-04-04T08:15:24;102909.81;;;16.77;100.00
31005;BME280;17676;52.254;4.490;2023-04-04T08:17:50;102916.44;;;16.61;100.00
31005;BME280;17676;52.254;4.490;2023-04-04T08:20:16;102907.63;;;16.66;100.00
31005;BME280;17676;52.254;4.490;2023-04-04T08:22:42;102906.16;;;17.25;100.00
31005;BME280;17676;52.254;4.490;2023-04-04T08:25:08;102922.09;;;16.87;100.00
31005;BME280;17676;52.254;4.490;2023-04-04T08:27:39;102926.97;;;15.14;100.00
31005;BME280;17676;52.254;4.490;2023-04-04T08:30:08;102930.06;;;16.40;100.00
31005;BME280;17676;52.254;4.490;2023-04-04T08:32:36;102928.28;;;14.52;100.00
31005;BME280;17676;52.254;4.490;2023-04-04T08:35:02;102913.44;;;15.79;100.00
31005;BME280;17676;52.254;4.490;2023-04-04T08:37:33;102914.16;;;16.44;100.00
31005;BME280;17676;52.254;4.490;2023-04-04T08:40:03;102923.03;;;16.31;93.21
31005;BME280;17676;52.254;4.490;2023-04-04T08:42:32;102929.34;;;16.11;92.29
31005;BME280;17676;52.254;4.490;2023-04-04T08:45:02;102919.47;;;16.31;90.25
31005;BME280;17676;52.254;4.490;2023-04-04T08:47:32;102922.81;;;15.91;88.05
31005;BME280;17676;52.254;4.490;2023-04-04T08:50:05;102912.41;;;16.22;84.88
31005;BME280;17676;52.254;4.490;2023-04-04T08:52:35;102914.75;;;15.25;83.94
31005;BME280;17676;52.254;4.490;2023-04-04T08:55:03;102904.53;;;16.48;87.76
31005;BME280;17676;52.254;4.490;2023-04-04T08:57:29;102912.13;;;15.75;80.32
31005;BME280;17676;52.254;4.490;2023-04-04T08:59:56;102903.63;;;14.82;86.40
31005;BME280;17676;52.254;4.490;2023-04-04T09:02:29;102925.66;;;14.58;88.18
31005;BME280;17676;52.254;4.490;2023-04-04T09:05:00;102903.31;;;13.18;93.36
31005;BME280;17676;52.254;4.490;2023-04-04T09:07:27;102911.13;;;14.80;92.80
31005;BME280;17676;52.254;4.490;2023-04-04T09:09:54;102915.31;;;16.35;84.22
31005;BME280;17676;52.254;4.490;2023-04-04T09:12:22;102917.09;;;16.42;80.69
31005;BME280;17676;52.254;4.490;2023-04-04T09:14:50;102922.75;;;15.84;83.17
31005;BME280;17676;52.254;4.490;2023-04-04T09:17:16;102917.53;;;15.89;83.50
31005;BME280;17676;52.254;4.490;2023-04-04T09:19:48;102924.84;;;16.87;80.55
31005;BME280;17676;52.254;4.490;2023-04-04T09:22:18;102933.69;;;17.17;71.20
31005;BME280;17676;52.254;4.490;2023-04-04T09:24:44;102913.09;;;17.21;79.68
31005;BME280;17676;52.254;4.490;2023-04-04T09:27:11;102903.81;;;17.22;76.72
31005;BME280;17676;52.254;4.490;2023-04-04T09:29:41;102924.91;;;17.62;77.87
31005;BME280;17676;52.254;4.490;2023-04-04T09:32:13;102915.66;;;17.69;70.42
31005;BME280;17676;52.254;4.490;2023-04-04T09:34:41;102921.00;;;17.09;72.88
31005;BME280;17676;52.254;4.490;2023-04-04T09:37:07;102930.03;;;17.78;73.67
31005;BME280;17676;52.254;4.490;2023-04-04T09:39:33;102925.03;;;17.88;73.70
31005;BME280;17676;52.254;4.490;2023-04-04T09:42:00;102905.63;;;16.81;72.18
31005;BME280;17676;52.254;4.490;2023-04-04T09:44:28;102914.22;;;15.44;83.66
31005;BME280;17676;52.254;4.490;2023-04-04T09:47:23;102920.44;;;14.71;80.87
31005;BME280;17676;52.254;4.490;2023-04-04T09:49:49;102902.06;;;15.46;76.87
31005;BME280;17676;52.254;4.490;2023-04-04T09:52:19;102906.31;;;15.99;81.12
31005;BME280;17676;52.254;4.490;2023-04-04T09:54:59;102919.84;;;17.25;73.29
31005;BME280;17676;52.254;4.490;2023-04-04T09:57:28;102901.59;;;16.77;76.88
31005;BME280;17676;52.254;4.490;2023-04-04T10:00:04;102898.03;;;17.04;72.07
31005;BME280;17676;52.254;4.490;2023-04-04T10:02:36;102901.50;;;17.53;73.19
31005;BME280;17676;52.254;4.490;2023-04-04T10:05:03;102909.94;;;18.11;70.29
31005;BME280;17676;52.254;4.490;2023-04-04T10:07:32;102908.84;;;18.06;68.20
31005;BME280;17676;52.254;4.490;2023-04-04T10:10:04;102921.09;;;15.90;69.54
31005;BME280;17676;52.254;4.490;2023-04-04T10:12:30;102899.81;;;15.64;72.16
31005;BME280;17676;52.254;4.490;2023-04-04T10:14:58;102915.25;;;16.49;76.90
31005;BME280;17676;52.254;4.490;2023-04-04T10:17:29;102918.41;;;17.29;72.05
31005;BME280;17676;52.254;4.490;2023-04-04T10:19:58;102924.19;;;17.47;72.92
31005;BME280;17676;52.254;4.490;2023-04-04T10:22:25;102909.00;;;16.83;71.98
31005;BME280;17676;52.254;4.490;2023-04-04T10:24:54;102906.41;;;16.75;71.86
31005;BME280;17676;52.254;4.490;2023-04-04T10:27:20;102901.31;;;17.27;72.25
31005;BME280;17676;52.254;4.490;2023-04-04T10:29:46;102916.25;;;16.90;70.55
31005;BME280;17676;52.254;4.490;2023-04-04T10:32:20;102921.75;;;16.97;74.24
31005;BME280;17676;52.254;4.490;2023-04-04T10:35:02;102910.88;;;16.76;70.08
31005;BME280;17676;52.254;4.490;2023-04-04T10:40:33;102906.31;;;16.20;69.91
31005;BME280;17676;52.254;4.490;2023-04-04T10:43:02;102890.94;;;15.98;75.44
31005;BME280;17676;52.254;4.490;2023-04-04T10:45:31;102877.81;;;15.87;72.69
31005;BME280;17676;52.254;4.490;2023-04-04T10:47:59;102867.59;;;16.16;68.96
31005;BME280;17676;52.254;4.490;2023-04-04T10:50:28;102882.81;;;16.67;68.75
31005;BME280;17676;52.254;4.490;2023-04-04T10:52:57;102885.13;;;16.98;66.54
31005;BME280;17676;52.254;4.490;2023-04-04T10:55:27;102860.94;;;15.83;75.37
31005;BME280;17676;52.254;4.490;2023-04-04T10:58:01;102867.56;;;15.39;77.02
31005;BME280;17676;52.254;4.490;2023-04-04T11:00:28;102852.81;;;16.53;76.33
31005;BME280;17676;52.254;4.490;2023-04-04T11:02:55;102864.66;;;16.18;68.96
31005;BME280;17676;52.254;4.490;2023-04-04T11:05:34;102862.63;;;12.78;77.06
31005;BME280;17676;52.254;4.490;2023-04-04T11:08:14;102852.34;;;13.81;83.14
31005;BME280;17676;52.254;4.490;2023-04-04T11:10:48;102847.69;;;14.72;84.00
31005;BME280;17676;52.254;4.490;2023-04-04T11:16:00;102864.38;;;16.34;71.40
31005;BME280;17676;52.254;4.490;2023-04-04T11:21:05;102850.31;;;15.38;71.02
31005;BME280;17676;52.254;4.490;2023-04-04T11:26:15;102833.78;;;14.96;72.20
31005;BME280;17676;52.254;4.490;2023-04-04T11:28:44;102828.75;;;15.29;77.60
31005;BME280;17676;52.254;4.490;2023-04-04T11:34:10;102837.53;;;15.39;70.85
31005;BME280;17676;52.254;4.490;2023-04-04T11:39:24;102823.88;;;15.39;81.08
31005;BME280;17676;52.254;4.490;2023-04-04T11:42:03;102825.88;;;14.87;76.57
31005;BME280;17676;52.254;4.490;2023-04-04T11:44:38;102802.91;;;15.10;74.42
31005;BME280;17676;52.254;4.490;2023-04-04T11:49:33;102808.56;;;14.94;77.12
31005;BME280;17676;52.254;4.490;2023-04-04T11:52:09;102818.44;;;14.80;77.44
31005;BME280;17676;52.254;4.490;2023-04-04T11:54:39;102802.81;;;15.04;79.42
31005;BME280;17676;52.254;4.490;2023-04-04T11:57:06;102826.78;;;15.73;74.31
31005;BME280;17676;52.254;4.490;2023-04-04T11:59:38;102805.81;;;16.64;78.14
31005;BME280;17676;52.254;4.490;2023-04-04T12:02:11;102805.69;;;15.60;78.42
31005;BME280;17676;52.254;4.490;2023-04-04T12:04:39;102790.56;;;15.29;79.45
31005;BME280;17676;52.254;4.490;2023-04-04T12:07:06;102805.28;;;14.99;81.17
31005;BME280;17676;52.254;4.490;2023-04-04T12:09:33;102799.69;;;14.11;86.49
31005;BME280;17676;52.254;4.490;2023-04-04T12:11:59;102782.66;;;13.72;91.53
31005;BME280;17676;52.254;4.490;2023-04-04T12:14:26;102788.06;;;14.40;95.37
31005;BME280;17676;52.254;4.490;2023-04-04T12:16:54;102781.94;;;14.15;89.84
31005;BME280;17676;52.254;4.490;2023-04-04T12:19:23;102798.25;;;14.01;95.55
31005;BME280;17676;52.254;4.490;2023-04-04T12:21:50;102776.38;;;14.31;97.44
31005;BME280;17676;52.254;4.490;2023-04-04T12:24:16;102759.50;;;14.13;96.92
31005;BME280;17676;52.254;4.490;2023-04-04T12:26:47;102780.81;;;13.87;95.20
31005;BME280;17676;52.254;4.490;2023-04-04T12:29:15;102788.56;;;13.98;93.46
31005;BME280;17676;52.254;4.490;2023-04-04T12:31:43;102763.09;;;14.51;96.60
31005;BME280;17676;52.254;4.490;2023-04-04T12:34:24;102770.31;;;14.07;95.22
31005;BME280;17676;52.254;4.490;2023-04-04T12:36:59;102760.72;;;14.33;96.70
31005;BME280;17676;52.254;4.490;2023-04-04T12:39:26;102768.81;;;14.19;94.37
31005;BME280;17676;52.254;4.490;2023-04-04T12:42:01;102755.63;;;14.30;97.73
31005;BME280;17676;52.254;4.490;2023-04-04T12:44:33;102755.56;;;14.53;94.50
31005;BME280;17676;52.254;4.490;2023-04-04T12:47:02;102756.59;;;14.37;93.66
31005;BME280;17676;52.254;4.490;2023-04-04T12:49:33;102761.06;;;14.30;98.02
31005;BME280;17676;52.254;4.490;2023-04-04T12:52:04;102762.03;;;13.55;100.00
31005;BME280;17676;52.254;4.490;2023-04-04T12:54:34;102728.31;;;13.11;100.00
31005;BME280;17676;52.254;4.490;2023-04-04T12:57:08;102741.16;;;13.25;100.00
31005;BME280;17676;52.254;4.490;2023-04-04T12:59:35;102746.50;;;13.41;100.00
31005;BME280;17676;52.254;4.490;2023-04-04T13:02:04;102717.59;;;12.79;100.00
31005;BME280;17676;52.254;4.490;2023-04-04T13:04:32;102742.97;;;12.56;100.00
31005;BME280;17676;52.254;4.490;2023-04-04T13:06:58;102708.53;;;12.48;100.00
31005;BME280;17676;52.254;4.490;2023-04-04T13:09:24;102724.97;;;12.55;100.00